createdAt,value
2022-11-06T00:00:08.302Z,6.16
2022-11-06T00:03:07.166Z,6.06
2022-11-06T00:05:58.691Z,5.93
2022-11-06T00:08:30.059Z,5.82
2022-11-06T00:10:59.257Z,5.70
2022-11-06T00:13:29.470Z,5.70
2022-11-06T00:16:02.875Z,5.68
2022-11-06T00:18:32.280Z,5.68
2022-11-06T00:21:08.671Z,5.56
2022-11-06T00:23:38.065Z,5.55
2022-11-06T00:26:08.385Z,5.49
2022-11-06T00:28:38.232Z,5.42
2022-11-06T00:31:09.340Z,5.41
2022-11-06T00:33:38.886Z,5.46
2022-11-06T00:36:11.963Z,5.39
2022-11-06T00:38:41.410Z,5.30
2022-11-06T00:41:13.319Z,5.26
2022-11-06T00:43:43.596Z,5.29
2022-11-06T00:46:14.682Z,5.27
2022-11-06T00:48:44.449Z,5.23
2022-11-06T00:51:16.657Z,5.14
2022-11-06T00:53:46.835Z,5.08
2022-11-06T00:56:17.746Z,5.06
2022-11-06T00:58:48.264Z,5.01
2022-11-06T01:01:19.954Z,5.07
2022-11-06T01:03:53.058Z,5.02
2022-11-06T01:06:25.545Z,5.01
2022-11-06T01:08:55.657Z,4.95
2022-11-06T01:11:41.821Z,4.96
2022-11-06T01:14:21.105Z,4.91
2022-11-06T01:16:50.309Z,4.91
2022-11-06T01:19:21.411Z,4.79
2022-11-06T01:21:54.425Z,4.76
2022-11-06T01:24:25.614Z,4.81
2022-11-06T01:29:44.678Z,4.73
2022-11-06T01:32:13.923Z,4.71
2022-11-06T01:34:43.378Z,4.75
2022-11-06T01:37:14.989Z,4.66
2022-11-06T01:39:44.793Z,4.59
2022-11-06T01:42:16.101Z,4.58
2022-11-06T01:45:25.190Z,4.48
2022-11-06T01:47:54.477Z,4.54
2022-11-06T01:50:24.034Z,4.56
2022-11-06T01:52:54.651Z,4.56
2022-11-06T01:55:30.022Z,4.53
2022-11-06T01:58:02.020Z,4.48
2022-11-06T02:00:32.723Z,4.40
2022-11-06T02:03:02.706Z,4.45
2022-11-06T02:05:32.285Z,4.47
2022-11-06T02:08:04.445Z,4.56
2022-11-06T02:10:35.416Z,4.45
2022-11-06T02:13:18.970Z,4.40
2022-11-06T02:15:52.926Z,4.44
2022-11-06T02:18:57.018Z,4.37
2022-11-06T02:21:59.400Z,4.42
2022-11-06T02:24:52.569Z,4.40
2022-11-06T02:27:27.933Z,4.37
2022-11-06T02:30:03.687Z,4.28
2022-11-06T02:32:40.312Z,4.32
2022-11-06T02:35:19.485Z,4.35
2022-11-06T02:37:53.794Z,4.30
2022-11-06T02:40:25.225Z,4.37
2022-11-06T02:43:00.058Z,4.38
2022-11-06T02:45:32.072Z,4.35
2022-11-06T02:48:03.056Z,4.27
2022-11-06T02:50:36.728Z,4.28
2022-11-06T02:53:12.321Z,4.26
2022-11-06T02:55:45.397Z,4.24
2022-11-06T02:58:20.504Z,4.27
2022-11-06T03:00:55.957Z,4.30
2022-11-06T03:03:26.272Z,4.32
2022-11-06T03:05:59.745Z,4.23
2022-11-06T03:08:34.660Z,4.24
2022-11-06T03:11:10.848Z,4.29
2022-11-06T03:13:50.975Z,4.69
2022-11-06T03:16:30.070Z,4.86
2022-11-06T03:19:05.515Z,4.95
2022-11-06T03:21:44.582Z,5.17
2022-11-06T03:24:18.183Z,4.98
2022-11-06T03:26:51.213Z,4.74
2022-11-06T03:29:29.214Z,4.57
2022-11-06T03:36:59.059Z,4.66
2022-11-06T03:39:31.521Z,4.72
2022-11-06T03:42:05.577Z,4.75
2022-11-06T03:44:40.710Z,4.90
2022-11-06T03:47:14.444Z,4.91
2022-11-06T03:49:49.178Z,4.73
2022-11-06T03:52:24.076Z,4.72
2022-11-06T03:54:59.843Z,4.75
2022-11-06T03:57:35.126Z,4.68
2022-11-06T04:00:09.154Z,4.63
2022-11-06T04:02:50.400Z,4.75
2022-11-06T04:05:23.033Z,4.76
2022-11-06T04:08:14.805Z,4.68
2022-11-06T04:11:06.887Z,4.64
2022-11-06T04:13:56.803Z,4.70
2022-11-06T04:16:32.054Z,4.66
2022-11-06T04:19:02.442Z,4.69
2022-11-06T04:21:53.951Z,4.70
2022-11-06T04:24:52.061Z,4.66
2022-11-06T04:27:41.622Z,4.60
2022-11-06T04:30:12.888Z,4.44
2022-11-06T04:32:59.815Z,4.58
2022-11-06T04:35:38.405Z,4.66
2022-11-06T04:38:14.171Z,4.70
2022-11-06T04:40:52.127Z,4.61
2022-11-06T04:43:31.357Z,4.68
2022-11-06T04:46:03.548Z,4.62
2022-11-06T04:48:34.588Z,4.59
2022-11-06T04:51:08.504Z,4.49
2022-11-06T04:53:38.702Z,4.44
2022-11-06T04:56:11.585Z,4.32
2022-11-06T04:58:40.714Z,4.40
2022-11-06T05:01:11.156Z,4.48
2022-11-06T05:03:41.758Z,4.42
2022-11-06T05:06:12.149Z,4.35
2022-11-06T05:08:41.306Z,4.38
2022-11-06T05:11:11.102Z,4.27
2022-11-06T05:13:40.251Z,4.21
2022-11-06T05:16:09.974Z,4.26
2022-11-06T05:18:40.417Z,4.25
2022-11-06T05:21:28.172Z,4.19
2022-11-06T05:23:57.277Z,4.12
2022-11-06T05:26:26.725Z,4.07
2022-11-06T05:28:56.830Z,4.06
2022-11-06T05:31:26.982Z,3.97
2022-11-06T05:33:57.612Z,3.98
2022-11-06T05:36:26.980Z,3.93
2022-11-06T05:38:56.108Z,3.96
2022-11-06T05:41:25.443Z,3.87
2022-11-06T05:43:55.078Z,3.92
2022-11-06T05:46:47.188Z,3.95
2022-11-06T05:49:15.097Z,3.96
2022-11-06T05:51:44.527Z,4.02
2022-11-06T05:54:13.809Z,3.96
2022-11-06T05:56:43.199Z,3.93
2022-11-06T05:59:13.117Z,3.93
2022-11-06T06:01:42.610Z,3.97
2022-11-06T06:04:13.317Z,3.92
2022-11-06T06:06:43.210Z,3.95
2022-11-06T06:09:12.315Z,3.92
2022-11-06T06:11:41.631Z,3.86
2022-11-06T06:14:10.802Z,3.88
2022-11-06T06:16:40.189Z,3.99
2022-11-06T06:19:09.243Z,4.11
2022-11-06T06:21:40.248Z,4.21
2022-11-06T06:24:09.786Z,4.22
2022-11-06T06:26:39.297Z,4.33
2022-11-06T06:29:08.349Z,4.38
2022-11-06T06:31:37.708Z,4.45
2022-11-06T06:34:06.780Z,4.65
2022-11-06T06:36:36.288Z,4.72
2022-11-06T06:39:06.972Z,4.94
2022-11-06T06:41:36.565Z,5.08
2022-11-06T06:44:05.944Z,5.16
2022-11-06T06:46:35.240Z,5.41
2022-11-06T06:49:04.899Z,5.50
2022-11-06T06:51:34.607Z,5.68
2022-11-06T06:54:05.219Z,5.86
2022-11-06T06:56:34.637Z,6.06
2022-11-06T06:59:03.837Z,6.15
2022-11-06T07:01:33.343Z,6.31
2022-11-06T07:04:04.480Z,6.36
2022-11-06T07:06:34.704Z,6.52
2022-11-06T07:09:05.241Z,6.49
2022-11-06T07:11:36.164Z,6.38
2022-11-06T07:14:05.282Z,6.21
2022-11-06T07:16:34.609Z,6.24
2022-11-06T07:19:03.781Z,6.17
2022-11-06T07:21:33.164Z,6.11
2022-11-06T07:24:02.284Z,6.24
2022-11-06T07:26:33.114Z,6.31
2022-11-06T07:29:02.400Z,6.37
2022-11-06T07:31:33.115Z,6.40
2022-11-06T07:34:02.370Z,6.62
2022-11-06T07:36:32.886Z,6.79
2022-11-06T07:39:01.884Z,6.90
2022-11-06T07:41:33.181Z,7.02
2022-11-06T07:44:02.319Z,7.10
2022-11-06T07:46:32.075Z,7.15
2022-11-06T07:49:01.541Z,7.37
2022-11-06T07:51:31.059Z,7.60
2022-11-06T07:54:00.193Z,7.78
2022-11-06T07:56:29.752Z,7.81
2022-11-06T07:59:00.383Z,8.02
2022-11-06T08:01:30.101Z,8.12
2022-11-06T08:03:59.598Z,8.50
2022-11-06T08:06:28.935Z,8.62
2022-11-06T08:08:59.225Z,8.75
2022-11-06T08:11:28.790Z,8.73
2022-11-06T08:14:00.657Z,8.64
2022-11-06T08:16:30.450Z,8.78
2022-11-06T08:18:59.617Z,9.09
2022-11-06T08:21:29.108Z,9.00
2022-11-06T08:23:58.276Z,9.02
2022-11-06T08:26:28.007Z,9.47
2022-11-06T08:28:57.774Z,9.40
2022-11-06T08:31:28.607Z,9.78
2022-11-06T08:33:57.661Z,9.70
2022-11-06T08:36:27.207Z,9.87
2022-11-06T08:38:56.174Z,9.78
2022-11-06T08:41:25.596Z,10.15
2022-11-06T08:43:54.813Z,10.06
2022-11-06T08:46:24.316Z,10.10
2022-11-06T08:48:55.229Z,10.15
2022-11-06T08:51:24.851Z,10.36
2022-11-06T08:53:54.143Z,10.60
2022-11-06T08:56:23.906Z,10.94
2022-11-06T08:58:55.700Z,11.21
2022-11-06T09:01:25.388Z,11.48
2022-11-06T09:03:56.296Z,12.00
2022-11-06T09:06:26.546Z,11.74
2022-11-06T09:08:55.624Z,11.94
2022-11-06T09:11:25.183Z,12.14
2022-11-06T09:13:54.370Z,11.25
2022-11-06T09:16:24.670Z,11.80
2022-11-06T09:18:57.596Z,12.20
2022-11-06T09:21:27.021Z,11.30
2022-11-06T09:23:56.188Z,12.23
2022-11-06T09:26:25.607Z,13.00
2022-11-06T09:28:54.703Z,13.60
2022-11-06T09:31:24.194Z,13.66
2022-11-06T09:33:53.351Z,13.55
2022-11-06T09:36:24.288Z,14.08
2022-11-06T09:38:53.529Z,14.05
2022-11-06T09:41:34.683Z,14.76
2022-11-06T09:44:22.649Z,14.65
2022-11-06T09:46:52.974Z,15.19
2022-11-06T09:49:27.230Z,15.90
2022-11-06T09:52:03.221Z,16.79
2022-11-06T09:54:38.826Z,16.28
2022-11-06T09:57:17.828Z,15.12
2022-11-06T09:59:48.186Z,14.07
2022-11-06T10:02:27.130Z,14.60
2022-11-06T10:05:05.209Z,15.93
2022-11-06T10:07:39.223Z,14.99
2022-11-06T10:10:15.571Z,15.59
2022-11-06T10:13:02.362Z,16.35
2022-11-06T10:15:35.682Z,17.70
2022-11-06T10:18:16.789Z,17.73
2022-11-06T10:20:52.685Z,17.49
2022-11-06T10:23:40.171Z,17.71
2022-11-06T10:26:16.153Z,18.37
2022-11-06T10:29:08.795Z,19.41
2022-11-06T10:31:46.996Z,19.90
2022-11-06T10:34:19.385Z,21.03
2022-11-06T10:36:53.004Z,20.87
2022-11-06T10:39:28.138Z,19.53
2022-11-06T10:42:05.129Z,19.09
2022-11-06T10:44:39.188Z,20.60
2022-11-06T10:47:16.823Z,21.93
2022-11-06T10:49:50.063Z,22.19
2022-11-06T10:52:47.176Z,21.64
2022-11-06T10:55:54.775Z,21.12
2022-11-06T10:58:28.264Z,20.19
2022-11-06T11:01:01.405Z,19.65
2022-11-06T11:03:33.965Z,21.01
2022-11-06T11:06:05.066Z,20.27
2022-11-06T11:08:36.325Z,19.43
2022-11-06T11:11:17.076Z,20.34
2022-11-06T11:13:47.935Z,20.05
2022-11-06T11:16:19.426Z,22.87
2022-11-06T11:18:49.538Z,22.84
2022-11-06T11:21:28.258Z,23.98
2022-11-06T11:24:09.534Z,21.87
2022-11-06T11:26:44.834Z,21.78
2022-11-06T11:29:18.330Z,21.44
2022-11-06T11:31:51.609Z,22.59
2022-11-06T11:34:24.634Z,21.95
2022-11-06T11:37:01.375Z,20.39
2022-11-06T11:39:33.945Z,23.45
2022-11-06T11:42:25.262Z,22.04
2022-11-06T11:45:18.347Z,23.03
2022-11-06T11:47:49.511Z,23.31
2022-11-06T11:50:36.597Z,22.61
2022-11-06T11:53:17.870Z,22.10
2022-11-06T11:55:49.507Z,23.21
2022-11-06T11:58:28.093Z,22.96
2022-11-06T12:00:59.316Z,23.16
2022-11-06T12:03:33.509Z,22.57
2022-11-06T12:06:11.514Z,24.38
2022-11-06T12:08:46.338Z,23.17
2022-11-06T12:11:20.730Z,21.95
2022-11-06T12:14:22.782Z,25.06
2022-11-06T12:16:58.166Z,22.82
2022-11-06T12:19:31.774Z,23.97
2022-11-06T12:22:07.762Z,23.38
2022-11-06T12:24:44.303Z,24.77
2022-11-06T12:27:17.395Z,23.53
2022-11-06T12:29:50.880Z,22.87
2022-11-06T12:32:34.661Z,24.76
2022-11-06T12:35:13.884Z,25.79
2022-11-06T12:37:54.202Z,23.84
2022-11-06T12:40:26.681Z,23.43
2022-11-06T12:43:12.014Z,23.06
2022-11-06T12:46:03.796Z,22.39
2022-11-06T12:48:57.567Z,23.70
2022-11-06T12:51:38.991Z,23.38
2022-11-06T12:54:30.008Z,24.37
2022-11-06T12:57:07.583Z,22.09
2022-11-06T12:59:48.161Z,21.44
2022-11-06T13:02:35.544Z,21.47
2022-11-06T13:05:17.215Z,21.52
2022-11-06T13:08:17.375Z,21.52
2022-11-06T13:10:58.571Z,22.81
2022-11-06T13:13:43.305Z,21.29
2022-11-06T13:16:23.370Z,19.79
2022-11-06T13:18:57.398Z,21.49
2022-11-06T13:21:39.236Z,20.95
2022-11-06T13:24:14.747Z,20.01
2022-11-06T13:26:49.105Z,21.17
2022-11-06T13:29:20.915Z,20.19
2022-11-06T13:31:58.055Z,19.92
2022-11-06T13:34:31.957Z,19.95
2022-11-06T13:37:03.149Z,19.03
2022-11-06T13:39:38.498Z,17.87
2022-11-06T13:42:16.300Z,17.19
2022-11-06T13:44:46.531Z,16.49
2022-11-06T13:47:22.040Z,15.49
2022-11-06T13:50:02.982Z,15.30
2022-11-06T13:52:40.381Z,15.97
2022-11-06T13:55:20.399Z,16.30
2022-11-06T13:58:21.445Z,15.02
2022-11-06T14:01:03.183Z,14.53
2022-11-06T14:04:23.039Z,14.13
2022-11-06T14:06:56.598Z,14.08
2022-11-06T14:09:32.379Z,13.67
2022-11-06T14:12:08.902Z,13.41
2022-11-06T14:14:40.638Z,13.24
2022-11-06T14:17:22.022Z,13.01
2022-11-06T14:20:08.145Z,12.87
2022-11-06T14:22:39.039Z,12.84
2022-11-06T14:25:44.413Z,12.67
2022-11-06T14:28:31.257Z,12.37
2022-11-06T14:31:20.852Z,12.22
2022-11-06T14:34:02.489Z,12.19
2022-11-06T14:36:37.331Z,12.13
2022-11-06T14:39:14.494Z,11.97
2022-11-06T14:41:59.693Z,11.89
2022-11-06T14:44:47.082Z,12.05
2022-11-06T14:47:43.489Z,11.77
2022-11-06T14:50:27.674Z,11.84
2022-11-06T14:53:01.485Z,11.84
2022-11-06T14:55:33.714Z,11.70
2022-11-06T14:58:19.973Z,11.72
2022-11-06T15:00:52.219Z,11.67
2022-11-06T15:03:26.929Z,11.67
2022-11-06T15:06:01.654Z,11.49
2022-11-06T15:08:54.132Z,11.35
2022-11-06T15:11:51.678Z,11.31
2022-11-06T15:15:00.726Z,11.06
2022-11-06T15:17:36.473Z,10.94
2022-11-06T15:20:25.817Z,10.72
2022-11-06T15:23:12.893Z,10.56
2022-11-06T15:25:58.132Z,10.43
2022-11-06T15:28:33.245Z,10.40
2022-11-06T15:31:06.758Z,10.27
2022-11-06T15:33:51.639Z,10.25
2022-11-06T15:36:24.963Z,10.21
2022-11-06T15:38:54.102Z,10.18
2022-11-06T15:41:26.085Z,10.24
2022-11-06T15:43:57.209Z,10.08
2022-11-06T15:46:28.747Z,10.11
2022-11-06T15:49:24.928Z,10.14
2022-11-06T15:51:57.414Z,10.06
2022-11-06T15:54:36.124Z,10.03
2022-11-06T15:57:14.804Z,9.94
2022-11-06T15:59:44.063Z,9.91
2022-11-06T16:02:19.909Z,10.00
2022-11-06T16:04:51.434Z,9.94
2022-11-06T16:07:21.813Z,9.95
2022-11-06T16:09:52.798Z,9.89
2022-11-06T16:12:22.479Z,9.78
2022-11-06T16:14:51.502Z,9.78
2022-11-06T16:17:26.828Z,9.78
2022-11-06T16:20:00.246Z,9.77
2022-11-06T16:22:32.456Z,9.65
2022-11-06T16:25:04.089Z,9.67
2022-11-06T16:27:36.362Z,9.54
2022-11-06T16:30:06.840Z,9.49
2022-11-06T16:32:42.390Z,9.37
2022-11-06T16:35:37.392Z,9.47
2022-11-06T16:38:42.531Z,9.48
2022-11-06T16:41:34.374Z,9.41
2022-11-06T16:44:26.241Z,9.42
2022-11-06T16:47:20.362Z,9.50
2022-11-06T16:49:53.948Z,9.48
2022-11-06T16:52:29.509Z,9.36
2022-11-06T16:55:02.532Z,9.25
2022-11-06T16:57:34.990Z,9.10
2022-11-06T17:00:06.986Z,9.02
2022-11-06T17:02:39.210Z,8.77
2022-11-06T17:08:09.464Z,8.72
2022-11-06T17:10:41.175Z,8.60
2022-11-06T17:13:18.906Z,8.58
2022-11-06T17:15:52.998Z,8.45
2022-11-06T17:18:23.758Z,8.44
2022-11-06T17:20:57.139Z,8.58
2022-11-06T17:23:29.134Z,8.58
2022-11-06T17:26:02.421Z,8.62
2022-11-06T17:28:32.558Z,8.66
2022-11-06T17:31:02.034Z,8.71
2022-11-06T17:33:31.104Z,8.64
2022-11-06T17:36:00.632Z,8.81
2022-11-06T17:38:33.107Z,8.75
2022-11-06T17:41:02.510Z,8.66
2022-11-06T17:43:31.594Z,8.67
2022-11-06T17:46:02.209Z,8.74
2022-11-06T17:48:31.405Z,8.77
2022-11-06T17:51:18.508Z,8.80
2022-11-06T17:53:50.458Z,8.73
2022-11-06T17:56:20.631Z,8.78
2022-11-06T17:58:49.825Z,8.90
2022-11-06T18:01:19.758Z,8.85
2022-11-06T18:03:49.079Z,8.84
2022-11-06T18:06:19.057Z,8.84
2022-11-06T18:08:49.895Z,8.80
2022-11-06T18:11:19.387Z,8.76
2022-11-06T18:13:48.550Z,8.80
2022-11-06T18:16:19.157Z,8.74
2022-11-06T18:18:49.025Z,8.95
2022-11-06T18:21:18.481Z,8.96
2022-11-06T18:23:49.122Z,8.87
2022-11-06T18:26:18.837Z,8.65
2022-11-06T18:28:48.166Z,8.74
2022-11-06T18:31:18.289Z,8.77
2022-11-06T18:33:47.557Z,8.71
2022-11-06T18:36:17.953Z,8.64
2022-11-06T18:38:48.659Z,8.67
2022-11-06T18:41:20.554Z,8.62
2022-11-06T18:43:50.159Z,8.63
2022-11-06T18:46:20.807Z,8.66
2022-11-06T18:48:50.256Z,8.55
2022-11-06T18:51:33.877Z,8.60
2022-11-06T18:54:07.638Z,8.58
2022-11-06T18:56:38.948Z,8.56
2022-11-06T18:59:09.783Z,8.48
2022-11-06T19:01:40.375Z,8.43
2022-11-06T19:04:10.992Z,8.53
2022-11-06T19:06:41.180Z,8.52
2022-11-06T19:09:11.799Z,8.63
2022-11-06T19:11:41.275Z,8.40
2022-11-06T19:14:10.615Z,8.61
2022-11-06T19:16:40.052Z,8.73
2022-11-06T19:19:09.339Z,8.70
2022-11-06T19:21:40.510Z,8.62
2022-11-06T19:24:14.499Z,8.64
2022-11-06T19:26:44.086Z,8.45
2022-11-06T19:29:13.260Z,8.38
2022-11-06T19:31:43.574Z,8.43
2022-11-06T19:34:15.081Z,8.22
2022-11-06T19:36:44.565Z,8.10
2022-11-06T19:39:15.311Z,7.83
2022-11-06T19:41:44.903Z,7.85
2022-11-06T19:44:14.541Z,7.67
2022-11-06T19:46:43.898Z,7.76
2022-11-06T19:49:13.126Z,7.58
2022-11-06T19:51:42.607Z,7.73
2022-11-06T19:54:12.239Z,7.54
2022-11-06T19:57:27.504Z,7.97
2022-11-06T19:59:32.579Z,8.04
2022-11-06T20:02:02.721Z,7.99
2022-11-06T20:04:32.062Z,8.08
2022-11-06T20:07:01.780Z,8.34
2022-11-06T20:09:31.031Z,8.47
2022-11-06T20:12:02.016Z,8.40
2022-11-06T20:14:31.579Z,8.39
2022-11-06T20:17:01.018Z,8.10
2022-11-06T20:19:30.238Z,8.24
2022-11-06T20:21:59.602Z,8.08
2022-11-06T20:24:28.684Z,8.14
2022-11-06T20:26:58.418Z,8.01
2022-11-06T20:29:29.016Z,8.13
2022-11-06T20:31:58.328Z,8.17
2022-11-06T20:34:27.470Z,8.13
2022-11-06T20:36:56.910Z,8.15
2022-11-06T20:39:26.019Z,8.10
2022-11-06T20:41:55.392Z,7.81
2022-11-06T20:44:24.534Z,7.94
2022-11-06T20:46:55.479Z,7.98
2022-11-06T20:49:24.585Z,7.97
2022-11-06T20:52:13.314Z,7.91
2022-11-06T20:54:47.102Z,7.61
2022-11-06T20:57:17.846Z,7.83
2022-11-06T20:59:47.204Z,7.67
2022-11-06T21:02:18.136Z,7.71
2022-11-06T21:04:47.509Z,7.69
2022-11-06T21:07:17.039Z,7.71
2022-11-06T21:09:46.301Z,7.84
2022-11-06T21:12:15.892Z,7.75
2022-11-06T21:14:44.912Z,7.84
2022-11-06T21:17:14.288Z,7.86
2022-11-06T21:19:44.948Z,7.91
2022-11-06T21:22:15.224Z,7.91
2022-11-06T21:24:44.636Z,8.04
2022-11-06T21:27:14.111Z,7.98
2022-11-06T21:29:43.324Z,7.85
2022-11-06T21:32:12.761Z,7.93
2022-11-06T21:34:43.198Z,7.88
2022-11-06T21:37:12.710Z,7.76
2022-11-06T21:39:41.882Z,7.95
2022-11-06T21:42:11.281Z,7.92
2022-11-06T21:44:40.468Z,8.00
2022-11-06T21:47:09.834Z,7.94
2022-11-06T21:49:39.176Z,7.88
2022-11-06T21:52:29.432Z,7.85
2022-11-06T21:55:16.098Z,7.72
2022-11-06T21:57:45.612Z,7.59
2022-11-06T22:00:15.625Z,7.65
2022-11-06T22:02:45.227Z,7.72
2022-11-06T22:05:14.595Z,7.80
2022-11-06T22:07:45.497Z,7.71
2022-11-06T22:10:15.095Z,7.80
2022-11-06T22:12:44.455Z,7.73
2022-11-06T22:15:14.782Z,7.54
2022-11-06T22:17:44.273Z,7.72
2022-11-06T22:20:13.731Z,7.63
2022-11-06T22:22:44.551Z,7.55
2022-11-06T22:25:14.137Z,7.40
2022-11-06T22:27:44.692Z,7.68
2022-11-06T22:30:14.978Z,7.66
2022-11-06T22:32:44.630Z,7.73
2022-11-06T22:35:13.783Z,7.48
2022-11-06T22:37:44.727Z,7.53
2022-11-06T22:40:14.065Z,7.57
2022-11-06T22:42:47.183Z,7.53
2022-11-06T22:45:18.766Z,7.51
2022-11-06T22:47:48.589Z,7.69
2022-11-06T22:50:17.975Z,7.67
2022-11-06T22:52:48.813Z,7.58
2022-11-06T22:55:18.496Z,7.48
2022-11-06T22:57:48.085Z,7.36
2022-11-06T23:00:18.555Z,7.35
2022-11-06T23:02:48.164Z,7.24
2022-11-06T23:05:17.630Z,7.06
2022-11-06T23:07:48.542Z,7.08
2022-11-06T23:10:28.726Z,7.09
2022-11-06T23:12:58.696Z,7.11
2022-11-06T23:15:27.948Z,7.08
2022-11-06T23:17:57.788Z,7.07
2022-11-06T23:20:27.200Z,6.97
2022-11-06T23:22:58.433Z,7.05
2022-11-06T23:25:27.974Z,6.86
2022-11-06T23:27:59.778Z,6.92
2022-11-06T23:30:30.119Z,6.92
2022-11-06T23:33:00.054Z,6.91
2022-11-06T23:35:32.583Z,6.86
2022-11-06T23:38:03.977Z,6.75
2022-11-06T23:40:33.187Z,6.69
2022-11-06T23:43:02.549Z,6.57
2022-11-06T23:45:48.876Z,6.61
2022-11-06T23:48:18.731Z,6.47
2022-11-06T23:50:47.987Z,6.48
2022-11-06T23:53:18.809Z,6.40
2022-11-06T23:55:47.923Z,6.34
2022-11-06T23:58:17.354Z,6.24
